Time;durP1;ratioP1;P1;durP2;ratioP2;P2;SDS_P1;SDS_P2;PMS_P1;PMS_P2;Temp;Humidity;BMP_temperature;BMP_pressure;BME280_temperature;BME280_humidity;BME280_pressure;Samples;Min_cycle;Max_cycle;Signal;HPM_P1;HPM_P2
2023/03/24 00:03:20;;;;;;;;;;;;;;;5.27;85.42;97757.19;10406126;28;20120;-51
2023/03/24 00:08:18;;;;;;;72.68;42.80;;;;;;;5.21;85.54;97751.06;10409910;28;19930;-53
2023/03/24 00:13:17;;;;;;;78.05;45.60;;;;;;;5.21;85.48;97758.78;10409117;28;20028;-53
2023/03/24 00:18:17;;;;;;;65.15;38.33;;;;;;;5.05;86.14;97753.31;10408423;28;20032;-52
2023/03/24 00:23:16;;;;;;;59.03;36.92;;;;;;;4.94;86.42;97759.94;10408657;28;20086;-52
2023/03/24 00:28:15;;;;;;;48.25;27.30;;;;;;;4.73;87.38;97752.59;10406891;28;20045;-53
2023/03/24 00:33:14;;;;;;;42.53;24.75;;;;;;;4.74;87.23;97751.78;10408892;28;20060;-53
2023/03/24 00:38:13;;;;;;;48.50;25.23;;;;;;;4.72;86.95;97759.44;10406619;28;20025;-52
2023/03/24 00:43:12;;;;;;;45.42;24.30;;;;;;;4.70;87.05;97752.53;10407984;28;20036;-53
2023/03/24 00:48:16;;;;;;;;;;;;;;;4.66;87.09;97759.31;10403724;28;20131;-52
2023/03/24 00:53:15;;;;;;;51.65;28.23;;;;;;;4.64;86.96;97761.00;10405956;28;19967;-50
2023/03/24 00:58:18;;;;;;;52.65;27.98;;;;;;;4.61;87.13;97748.06;10407180;28;20131;-51
2023/03/24 01:03:20;;;;;;;55.50;30.55;;;;;;;4.58;87.11;97753.13;10405432;28;20144;-52
2023/03/24 01:08:19;;;;;;;59.55;31.50;;;;;;;4.56;86.78;97744.53;10409666;28;20079;-51
2023/03/24 01:13:24;;;;;;;53.33;29.42;;;;;;;4.41;86.52;97737.34;10409358;28;20028;-52
2023/03/24 01:18:24;;;;;;;54.70;30.42;;;;;;;4.46;86.63;97747.72;10408452;28;20913;-52
2023/03/24 01:23:25;;;;;;;54.00;31.45;;;;;;;4.40;86.68;97739.88;10409214;28;20056;-52
2023/03/24 01:28:24;;;;;;;60.13;33.50;;;;;;;4.41;86.73;97739.91;10409090;28;20067;-52
2023/03/24 01:33:23;;;;;;;60.65;34.53;;;;;;;4.39;86.77;97743.28;10410777;28;20103;-52
2023/03/24 01:38:22;;;;;;;61.90;33.47;;;;;;;4.34;86.69;97744.84;10410923;28;20027;-51
2023/03/24 01:43:26;;;;;;;60.95;35.70;;;;;;;4.01;86.82;97697.00;10410751;28;20040;-52
2023/03/24 01:48:34;;;;;;;58.85;34.28;;;;;;;4.27;86.88;97741.28;10410845;28;20068;-51
2023/03/24 01:53:37;;;;;;;60.35;31.98;;;;;;;4.18;87.17;97757.34;10411193;28;20079;-52
2023/03/24 01:58:39;;;;;;;50.75;28.85;;;;;;;3.70;86.75;97672.28;10410103;28;20056;-52
2023/03/24 02:03:40;;;;;;;57.28;30.90;;;;;;;3.63;86.64;97658.44;10410935;28;20123;-52
2023/03/24 02:08:42;;;;;;;54.40;29.90;;;;;;;3.79;86.68;97701.63;10409724;28;20060;-52
2023/03/24 02:13:41;;;;;;;189.90;97.88;;;;;;;4.10;86.57;97761.41;10410295;28;20052;-52
2023/03/24 02:18:51;;;;;;;;;;;;;;;4.02;87.22;97760.38;10410130;28;20056;-52
2023/03/24 02:24:21;;;;;;;119.07;59.35;;;;;;;3.98;87.05;97743.16;10409364;28;19955;-52
2023/03/24 02:29:50;;;;;;;94.50;46.90;;;;;;;3.99;86.85;97744.91;10406778;28;20067;-51
2023/03/24 02:35:11;;;;;;;81.43;42.60;;;;;;;3.96;87.03;97747.38;10405529;28;20056;-52
2023/03/24 02:40:16;;;;;;;90.32;49.30;;;;;;;4.00;87.16;97731.22;10405921;28;20063;-51
2023/03/24 02:45:39;;;;;;;111.32;57.10;;;;;;;3.67;86.81;97669.66;10406050;28;20063;-51
2023/03/24 02:51:01;;;;;;;47.70;28.52;;;;;;;3.97;87.58;97726.88;10405870;28;20812;-52
2023/03/24 02:56:15;;;;;;;53.53;31.25;;;;;;;3.93;87.46;97734.47;10405991;28;20068;-52
2023/03/24 03:01:30;;;;;;;52.45;31.77;;;;;;;3.93;87.00;97740.47;10405276;28;20056;-52
2023/03/24 03:06:33;;;;;;;49.03;27.30;;;;;;;3.90;86.84;97730.13;10404727;28;20079;-52
2023/03/24 03:11:33;;;;;;;50.60;28.92;;;;;;;3.92;86.92;97712.22;10405194;28;20087;-52
2023/03/24 03:16:39;;;;;;;42.88;27.65;;;;;;;3.67;88.33;97716.72;10405443;28;20068;-52
2023/03/24 03:21:42;;;;;;;47.40;31.25;;;;;;;3.38;88.11;97668.09;10405810;28;20060;-51
2023/03/24 03:26:44;;;;;;;43.70;24.63;;;;;;;3.67;87.79;97710.72;10405241;28;20454;-51
2023/03/24 03:31:52;;;;;;;37.60;23.05;;;;;;;3.67;88.35;97710.72;10404586;28;20072;-52
2023/03/24 03:37:04;;;;;;;40.50;25.00;;;;;;;3.69;87.69;97714.19;10404069;28;20064;-52
2023/03/24 03:42:05;;;;;;;39.80;24.33;;;;;;;3.62;87.91;97718.28;10404607;28;20060;-52
2023/03/24 03:47:04;;;;;;;43.55;25.88;;;;;;;3.61;88.01;97711.41;10404073;28;20068;-52
2023/03/24 03:52:05;;;;;;;46.55;25.08;;;;;;;3.57;88.33;97717.31;10404603;28;20051;-51
2023/03/24 03:57:05;;;;;;;41.67;27.25;;;;;;;3.56;88.19;97728.38;10403884;28;20485;-52
2023/03/24 04:02:15;;;;;;;44.03;26.50;;;;;;;3.59;88.28;97733.63;10403848;28;20071;-52
2023/03/24 04:07:56;;;;;;;49.10;26.65;;;;;;;3.56;87.96;97746.34;10403658;28;20048;-51
2023/03/24 04:13:07;;;;;;;44.78;24.58;;;;;;;3.47;88.04;97739.28;10406401;28;20115;-51
2023/03/24 04:18:14;;;;;;;54.08;30.38;;;;;;;3.44;88.08;97739.19;10407863;28;20124;-50
2023/03/24 04:23:25;;;;;;;59.85;34.97;;;;;;;3.44;88.32;97740.06;10410848;28;20071;-52
2023/03/24 04:28:57;;;;;;;54.63;31.77;;;;;;;3.41;88.19;97734.84;10410800;28;20102;-52
2023/03/24 04:34:04;;;;;;;58.22;31.75;;;;;;;3.45;87.57;97740.94;10410968;28;20143;-53
2023/03/24 04:39:03;;;;;;;55.08;30.92;;;;;;;3.44;87.63;97742.63;10410489;28;20517;-52
2023/03/24 04:44:03;;;;;;;55.08;30.17;;;;;;;3.44;87.69;97737.50;10409696;28;20059;-51
2023/03/24 04:49:03;;;;;;;52.67;28.65;;;;;;;3.32;87.02;97724.34;10410592;28;20067;-52
2023/03/24 04:54:02;;;;;;;54.97;32.42;;;;;;;3.52;87.14;97753.13;10409844;28;20083;-52
2023/03/24 04:59:01;;;;;;;;;;;;;;;3.57;87.52;97766.06;10409218;28;20116;-51
2023/03/24 05:04:00;;;;;;;65.47;32.95;;;;;;;3.66;87.43;97758.63;10383942;28;19956;-51
2023/03/24 05:08:59;;;;;;;;;;;;;;;3.79;87.69;97773.47;10408274;28;20115;-53
2023/03/24 05:13:58;;;;;;;57.50;32.10;;;;;;;3.95;87.70;97771.31;10408211;28;19919;-53
2023/03/24 05:18:57;;;;;;;63.15;36.30;;;;;;;4.12;87.99;97769.16;10406076;28;20032;-52
2023/03/24 05:23:56;;;;;;;81.00;48.38;;;;;;;4.28;88.01;97769.56;10407069;28;20585;-53
2023/03/24 05:28:55;;;;;;;70.35;40.05;;;;;;;4.45;88.30;97769.09;10407653;28;20556;-53
2023/03/24 05:33:55;;;;;;;72.70;40.42;;;;;;;4.64;87.95;97775.53;10407773;28;20041;-53
2023/03/24 05:38:54;;;;;;;69.07;40.85;;;;;;;4.79;88.47;97772.44;10405430;28;20186;-52
2023/03/24 05:43:53;;;;;;;72.60;39.92;;;;;;;4.97;88.08;97767.75;10403993;28;20123;-51
2023/03/24 05:48:52;;;;;;;68.53;39.53;;;;;;;5.22;88.13;97765.66;10407349;28;20060;-53
2023/03/24 05:53:51;;;;;;;60.35;39.40;;;;;;;5.30;88.28;97771.84;10406957;28;20035;-51
2023/03/24 05:58:50;;;;;;;;;;;;;;;5.57;87.91;97775.78;10406472;28;20143;-51
2023/03/24 06:03:50;;;;;;;66.60;43.63;;;;;;;5.62;87.39;97779.31;10403795;28;19920;-49
2023/03/24 06:08:53;;;;;;;74.15;46.00;;;;;;;5.74;87.04;97777.84;10407311;28;20036;-51
2023/03/24 06:13:52;;;;;;;68.53;41.72;;;;;;;5.92;87.39;97784.16;10406366;28;20074;-51
2023/03/24 06:18:51;;;;;;;62.28;38.13;;;;;;;6.13;87.46;97783.66;10406427;28;20046;-52
2023/03/24 06:23:50;;;;;;;63.35;38.33;;;;;;;6.37;86.70;97783.19;10406702;28;20063;-51
2023/03/24 06:28:52;;;;;;;78.47;41.88;;;;;;;6.63;86.02;97786.16;10400452;28;20134;-52
2023/03/24 06:33:51;;;;;;;63.35;35.85;;;;;;;6.69;84.97;97794.00;10405299;28;20084;-54
2023/03/24 06:38:50;;;;;;;59.67;36.70;;;;;;;6.92;85.56;97794.34;10403296;28;20114;-52
2023/03/24 06:43:49;;;;;;;63.30;34.70;;;;;;;7.06;85.61;97786.78;10405809;28;20064;-53
2023/03/24 06:48:48;;;;;;;;;;;;;;;7.38;85.02;97792.38;10408966;28;20064;-53
2023/03/24 06:53:47;;;;;;;44.10;28.92;;;;;;;7.57;83.98;97796.06;10408765;28;19991;-53
2023/03/24 06:58:46;;;;;;;40.38;25.92;;;;;;;7.80;82.62;97790.28;10407573;28;20040;-53
2023/03/24 07:03:45;;;;;;;38.42;25.63;;;;;;;7.97;81.24;97796.50;10407840;28;20138;-54
2023/03/24 07:08:44;;;;;;;42.60;26.67;;;;;;;8.14;80.77;97788.03;10407796;28;20174;-52
2023/03/24 07:13:43;;;;;;;34.30;23.98;;;;;;;8.21;79.66;97764.84;10409162;28;20517;-52
2023/03/24 07:18:42;;;;;;;34.53;21.83;;;;;;;8.57;78.80;97788.38;10408891;28;20442;-54
2023/03/24 07:23:41;;;;;;;30.42;19.30;;;;;;;8.88;76.41;97787.75;10408509;28;20051;-52
2023/03/24 07:28:40;;;;;;;31.60;20.40;;;;;;;9.11;75.42;97787.00;10406914;28;20076;-52
2023/03/24 07:33:39;;;;;;;26.98;19.02;;;;;;;9.34;75.11;97790.59;10405750;28;20044;-52
2023/03/24 07:38:38;;;;;;;30.58;19.17;;;;;;;9.67;74.44;97780.34;10404318;28;20790;-52
2023/03/24 07:43:37;;;;;;;43.97;30.80;;;;;;;9.87;72.96;97770.06;10405369;28;20097;-52
2023/03/24 07:48:36;;;;;;;;;;;;;;;10.11;72.00;97770.06;10408745;28;20056;-53
2023/03/24 07:53:35;;;;;;;37.65;20.52;;;;;;;10.35;70.54;97757.97;10412683;28;19944;-53
2023/03/24 07:58:34;;;;;;;24.88;17.80;;;;;;;10.57;68.97;97758.84;10410978;28;20124;-53
2023/03/24 08:03:35;;;;;;;;;;;;;;;10.76;67.64;97754.50;10407935;28;20068;-53
2023/03/24 08:08:34;;;;;;;;;;;;;;;11.08;63.60;97746.69;10399206;28;19962;-53
2023/03/24 08:13:33;;;;;;;20.75;15.10;;;;;;;11.26;62.53;97735.34;10407477;28;19956;-53
2023/03/24 08:18:33;;;;;;;37.28;15.77;;;;;;;11.62;63.77;97742.09;10408624;28;20032;-53
2023/03/24 08:23:32;;;;;;;27.83;14.68;;;;;;;11.87;63.17;97727.19;10406636;28;20493;-52
2023/03/24 08:28:31;;;;;;;26.10;14.38;;;;;;;12.26;62.06;97722.59;10406732;28;20125;-53
2023/03/24 08:33:30;;;;;;;24.33;13.05;;;;;;;12.62;59.92;97709.28;10407310;28;20064;-52
2023/03/24 08:38:29;;;;;;;22.33;13.25;;;;;;;12.82;55.44;97703.88;10406697;28;20035;-55
2023/03/24 08:43:29;;;;;;;22.95;13.75;;;;;;;12.98;55.79;97692.41;10406953;28;20483;-52
2023/03/24 08:48:29;;;;;;;21.13;13.02;;;;;;;13.09;54.51;97679.25;10387772;28;20470;-54
2023/03/24 08:53:28;;;;;;;17.25;11.25;;;;;;;13.54;54.06;97677.81;10404095;28;20083;-54
2023/03/24 08:58:27;;;;;;;;;;;;;;;13.91;54.29;97665.97;10386533;28;20040;-54
2023/03/24 09:03:26;;;;;;;13.98;10.55;;;;;;;14.22;52.97;97655.91;10401482;28;20744;-52
2023/03/24 09:08:25;;;;;;;;;;;;;;;14.46;53.43;97656.38;10405161;28;20071;-53
2023/03/24 09:13:24;;;;;;;48.80;13.70;;;;;;;14.70;52.71;97641.97;10402172;28;19955;-52
2023/03/24 09:18:23;;;;;;;17.65;10.68;;;;;;;14.88;52.55;97646.03;10405435;28;20139;-52
2023/03/24 09:23:22;;;;;;;13.57;9.63;;;;;;;15.13;51.22;97626.34;10405000;28;20087;-52
2023/03/24 09:28:22;;;;;;;11.43;7.57;;;;;;;15.28;47.68;97634.75;10403942;28;20120;-52
2023/03/24 09:33:22;;;;;;;10.23;6.45;;;;;;;15.19;47.74;97602.66;10404915;28;20481;-53
2023/03/24 09:38:22;;;;;;;8.52;6.28;;;;;;;15.40;44.81;97613.53;10401158;28;20120;-53
2023/03/24 09:43:35;;;;;;;9.43;5.57;;;;;;;15.57;44.37;97621.00;10404009;28;20071;-53
2023/03/24 09:48:41;;;;;;;8.18;5.63;;;;;;;15.88;41.03;97614.19;10402297;28;20183;-53
2023/03/24 09:53:56;;;;;;;6.03;4.47;;;;;;;16.32;38.47;97598.22;10404113;28;20072;-53
2023/03/24 09:59:00;;;;;;;6.65;4.85;;;;;;;16.63;36.51;97595.66;10402123;28;20076;-53
2023/03/24 10:04:00;;;;;;;7.45;4.72;;;;;;;16.93;35.71;97590.44;10403634;28;20056;-53
2023/03/24 10:09:22;;;;;;;6.47;4.68;;;;;;;17.21;34.61;97580.00;10402873;28;20115;-53
2023/03/24 10:14:24;;;;;;;5.43;4.30;;;;;;;17.45;32.05;97580.13;10402934;28;20075;-54
2023/03/24 10:19:31;;;;;;;5.85;3.72;;;;;;;17.76;31.27;97570.44;10402493;28;20131;-54
2023/03/24 10:24:52;;;;;;;4.35;3.85;;;;;;;17.82;31.89;97569.34;10402927;28;20112;-55
2023/03/24 10:29:56;;;;;;;10.15;6.40;;;;;;;18.02;32.47;97568.69;10402693;28;20094;-55
2023/03/24 10:35:06;;;;;;;8.35;6.22;;;;;;;18.00;33.34;97530.28;10402221;28;20076;-54
2023/03/24 10:40:15;;;;;;;8.85;5.50;;;;;;;18.39;33.34;97559.56;10401114;28;20075;-55
2023/03/24 10:45:24;;;;;;;4.47;3.72;;;;;;;18.65;32.38;97550.72;10401486;28;20490;-55
2023/03/24 10:50:26;;;;;;;6.63;4.47;;;;;;;18.86;32.17;97546.47;10399199;28;20072;-55
2023/03/24 10:55:31;;;;;;;6.90;4.03;;;;;;;18.90;31.57;97542.81;10400035;28;20600;-55
2023/03/24 11:00:31;;;;;;;4.28;3.53;;;;;;;19.01;30.55;97537.97;10393527;28;20668;-55
2023/03/24 11:05:36;;;;;;;5.90;4.30;;;;;;;19.17;31.33;97538.25;10398207;28;20549;-55
2023/03/24 11:10:35;;;;;;;5.22;3.90;;;;;;;19.30;31.53;97522.84;10396086;28;20136;-55
2023/03/24 11:15:36;;;;;;;10.25;3.97;;;;;;;19.26;30.19;97489.69;10397497;28;20048;-55
2023/03/24 11:20:42;;;;;;;5.43;4.03;;;;;;;19.57;30.44;97505.09;10395672;28;20128;-55
2023/03/24 11:25:46;;;;;;;4.95;4.10;;;;;;;19.72;29.86;97493.09;10427618;28;20143;-55
2023/03/24 11:30:50;;;;;;;6.68;4.68;;;;;;;19.85;30.49;97489.00;10410415;28;20082;-55
2023/03/24 11:35:50;;;;;;;6.35;3.95;;;;;;;19.95;27.46;97471.03;10410777;28;20064;-55
2023/03/24 11:41:18;;;;;;;5.18;3.85;;;;;;;20.08;28.51;97479.28;10407310;28;20128;-55
2023/03/24 11:46:19;;;;;;;6.10;4.00;;;;;;;19.99;28.69;97463.88;10409317;28;20098;-55
2023/03/24 11:51:29;;;;;;;4.43;3.92;;;;;;;20.18;28.08;97459.50;10410951;28;20060;-55
2023/03/24 11:56:39;;;;;;;5.80;4.45;;;;;;;20.28;28.40;97452.03;10412632;28;20071;-55
2023/03/24 12:01:47;;;;;;;5.32;3.88;;;;;;;20.47;26.29;97444.19;10409058;28;20064;-56
2023/03/24 12:06:48;;;;;;;4.13;3.17;;;;;;;20.51;25.52;97440.47;10412779;28;20087;-55
2023/03/24 12:12:06;;;;;;;5.93;4.07;;;;;;;20.61;26.58;97436.50;10410186;28;20083;-55
2023/03/24 12:17:21;;;;;;;6.05;4.10;;;;;;;20.65;25.98;97430.13;10412053;28;21371;-55
2023/03/24 12:22:32;;;;;;;5.25;3.45;;;;;;;20.78;24.70;97419.03;10407515;28;20478;-55
2023/03/24 12:27:48;;;;;;;6.05;4.07;;;;;;;20.85;26.27;97418.66;10411421;28;20110;-62
2023/03/24 12:33:40;;;;;;;7.38;4.38;;;;;;;20.94;28.08;97401.56;10402233;28;20139;-55
2023/03/24 12:38:44;;;;;;;5.22;4.18;;;;;;;21.08;26.72;97399.09;10352180;28;20060;-55
2023/03/24 12:43:49;;;;;;;7.18;4.85;;;;;;;21.36;27.61;97391.59;10408130;28;20505;-55
2023/03/24 12:49:42;;;;;;;8.35;4.40;;;;;;;21.36;27.41;97386.31;10408516;28;20461;-55
2023/03/24 12:55:03;;;;;;;6.90;4.80;;;;;;;21.18;28.15;97383.66;10281520;28;20148;-55
2023/03/24 13:00:16;;;;;;;6.18;4.80;;;;;;;21.32;27.81;97383.00;10408943;28;20068;-55
2023/03/24 13:05:23;;;;;;;5.40;4.55;;;;;;;21.31;28.16;97362.81;10408068;28;20214;-55
2023/03/24 13:10:32;;;;;;;6.43;4.80;;;;;;;21.34;28.25;97339.75;10408197;28;20047;-55
2023/03/24 13:15:42;;;;;;;7.15;4.60;;;;;;;21.81;28.16;97350.59;10407783;28;20067;-55
2023/03/24 13:20:53;;;;;;;11.90;4.95;;;;;;;22.19;28.29;97356.47;10407412;28;20087;-55
2023/03/24 13:26:05;;;;;;;6.88;4.90;;;;;;;22.03;27.66;97350.31;10405455;28;20075;-55
2023/03/24 13:31:06;;;;;;;9.45;5.20;;;;;;;21.85;27.57;97339.78;10387673;28;20064;-55
2023/03/24 13:36:37;;;;;;;6.07;4.80;;;;;;;21.82;27.10;97339.91;10406082;28;20063;-55
2023/03/24 13:41:36;;;;;;;7.72;4.82;;;;;;;22.02;27.99;97328.31;10405361;28;20059;-55
2023/03/24 13:46:39;;;;;;;6.00;4.45;;;;;;;22.18;27.65;97318.63;10404413;28;20584;-55
2023/03/24 13:51:45;;;;;;;6.07;3.88;;;;;;;22.19;26.07;97314.19;10404775;28;20780;-55
2023/03/24 13:56:59;;;;;;;7.70;4.75;;;;;;;22.14;26.96;97316.25;10403885;28;20052;-56
2023/03/24 14:02:35;;;;;;;7.55;4.70;;;;;;;22.16;26.71;97304.66;10403402;28;20060;-55
2023/03/24 14:07:45;;;;;;;6.15;4.35;;;;;;;21.20;26.67;97180.41;10395301;28;20111;-55
2023/03/24 14:12:57;;;;;;;13.50;4.88;;;;;;;21.59;26.65;97261.06;10404019;28;20079;-55
2023/03/24 14:18:22;;;;;;;26.90;5.97;;;;;;;21.64;28.04;97299.50;10404001;28;20056;-55
2023/03/24 14:23:24;;;;;;;8.93;4.93;;;;;;;21.21;28.17;97298.25;10374315;28;20086;-54
2023/03/24 14:28:38;;;;;;;7.50;4.72;;;;;;;21.00;28.95;97306.28;10405339;28;20063;-55
2023/03/24 14:33:39;;;;;;;6.80;5.28;;;;;;;20.88;28.45;97296.34;10405518;28;20051;-56
2023/03/24 14:38:43;;;;;;;7.95;5.28;;;;;;;20.95;29.16;97292.47;10405531;28;20155;-56
2023/03/24 14:43:42;;;;;;;19.42;10.18;;;;;;;20.97;28.97;97298.53;10404967;28;20052;-56
2023/03/24 14:49:16;;;;;;;14.02;7.05;;;;;;;20.96;29.21;97296.81;10404065;28;20044;-56
2023/03/24 14:54:28;;;;;;;52.13;24.50;;;;;;;20.90;29.75;97294.47;10403485;28;20163;-56
2023/03/24 14:59:51;;;;;;;17.15;8.93;;;;;;;20.84;29.88;97294.78;10403928;28;20099;-56
2023/03/24 15:05:18;;;;;;;13.40;9.23;;;;;;;20.49;29.92;97294.72;10401523;28;20071;-55
2023/03/24 15:10:18;;;;;;;23.95;13.13;;;;;;;20.21;29.84;97300.41;10397232;28;20448;-55
2023/03/24 15:15:22;;;;;;;13.45;7.50;;;;;;;19.80;30.58;97259.28;10401415;28;20075;-54
2023/03/24 15:20:44;;;;;;;8.50;5.25;;;;;;;19.96;31.46;97303.38;10403236;28;20116;-56
2023/03/24 15:25:43;;;;;;;8.30;4.78;;;;;;;19.84;31.87;97296.88;10403500;28;20063;-55
2023/03/24 15:30:42;;;;;;;8.45;4.40;;;;;;;19.54;31.83;97272.75;10403844;28;20076;-55
2023/03/24 15:35:42;;;;;;;23.27;6.13;;;;;;;19.85;32.87;97309.94;10403626;28;20040;-56
2023/03/24 15:40:54;;;;;;;10.95;5.43;;;;;;;19.97;34.72;97303.28;10403380;28;20061;-55
2023/03/24 15:45:58;;;;;;;11.18;5.45;;;;;;;19.34;34.66;97219.22;10403612;28;20068;-56
2023/03/24 15:51:03;;;;;;;14.73;7.43;;;;;;;19.65;34.28;97313.50;10403299;28;20068;-55
2023/03/24 15:56:14;;;;;;;29.85;8.73;;;;;;;19.60;34.21;97325.13;10403725;28;20067;-55
2023/03/24 16:01:16;;;;;;;39.58;7.50;;;;;;;19.45;34.09;97331.91;10403013;28;20516;-55
2023/03/24 16:06:28;;;;;;;12.25;5.75;;;;;;;19.32;34.48;97328.97;10403417;28;20071;-55
2023/03/24 16:11:28;;;;;;;14.38;6.57;;;;;;;19.13;34.92;97331.50;10410650;28;20063;-55
2023/03/24 16:16:29;;;;;;;12.40;6.70;;;;;;;18.95;35.20;97341.03;10410603;28;20766;-55
2023/03/24 16:21:28;;;;;;;12.10;7.63;;;;;;;18.79;35.27;97332.06;10407566;28;20067;-55
2023/03/24 16:26:30;;;;;;;14.80;7.57;;;;;;;18.60;35.50;97338.03;10405569;28;20591;-54
2023/03/24 16:31:32;;;;;;;49.08;11.35;;;;;;;18.46;35.72;97345.59;10407790;28;20048;-53
2023/03/24 16:36:31;;;;;;;37.22;11.52;;;;;;;18.11;36.07;97318.06;10405998;28;20072;-53
2023/03/24 16:41:30;;;;;;;18.63;10.73;;;;;;;17.99;36.08;97340.41;10403203;28;20021;-53
2023/03/24 16:46:33;;;;;;;23.23;12.40;;;;;;;17.75;36.51;97337.75;10398651;28;20064;-53
2023/03/24 16:51:32;;;;;;;34.90;15.70;;;;;;;17.54;37.11;97344.63;10405106;28;20489;-54
2023/03/24 16:56:31;;;;;;;32.70;16.15;;;;;;;17.30;37.76;97338.44;10402935;28;20079;-54
2023/03/24 17:01:43;;;;;;;52.78;15.57;;;;;;;17.01;38.55;97335.97;10404696;28;20020;-54
2023/03/24 17:06:47;;;;;;;63.70;23.73;;;;;;;16.59;39.54;97311.09;10403973;28;20494;-54
2023/03/24 17:11:50;;;;;;;48.63;21.58;;;;;;;16.44;40.47;97343.88;10405301;28;20051;-54
2023/03/24 17:16:51;;;;;;;85.57;25.33;;;;;;;16.20;41.00;97344.59;10405002;28;20390;-54
2023/03/24 17:21:59;;;;;;;41.00;23.88;;;;;;;15.92;41.69;97350.66;10402190;28;20566;-53
2023/03/24 17:26:58;;;;;;;38.13;23.00;;;;;;;15.69;41.66;97353.88;10404860;28;20514;-53
2023/03/24 17:31:57;;;;;;;37.42;18.30;;;;;;;15.34;42.26;97357.44;10402134;28;20501;-55
2023/03/24 17:36:55;;;;;;;;;;;;;;;15.19;42.81;97354.34;10404565;28;20402;-54
2023/03/24 17:41:57;;;;;;;18.95;12.90;;;;;;;14.81;43.29;97327.44;10400510;28;19963;-54
2023/03/24 17:46:56;;;;;;;16.67;11.07;;;;;;;14.59;44.04;97339.25;10400536;28;20801;-54
2023/03/24 17:51:55;;;;;;;;;;;;;;;14.56;44.22;97355.84;10401491;28;20031;-55
2023/03/24 17:56:54;;;;;;;66.40;33.90;;;;;;;14.50;45.78;97355.13;10397476;28;20015;-54
2023/03/24 18:01:52;;;;;;;;;;;;;;;14.30;46.13;97359.06;10403471;28;20127;-54
2023/03/24 18:06:51;;;;;;;70.10;41.07;;;;;;;13.78;48.66;97341.94;10403708;28;20017;-54
2023/03/24 18:11:50;;;;;;;;;;;;;;;13.76;49.45;97364.56;10403717;28;20036;-54
2023/03/24 18:16:49;;;;;;;75.70;43.80;;;;;;;13.66;49.34;97366.50;10401562;28;19927;-55
2023/03/24 18:21:48;;;;;;;;;;;;;;;13.53;49.86;97359.75;10403773;28;20059;-54
2023/03/24 18:26:47;;;;;;;78.15;48.85;;;;;;;13.40;50.19;97366.97;10402161;28;19917;-54
2023/03/24 18:31:46;;;;;;;;;;;;;;;13.18;51.09;97366.47;10406328;28;20121;-53
2023/03/24 18:36:47;;;;;;;57.00;38.75;;;;;;;12.85;50.98;97334.91;10405693;28;19926;-54
2023/03/24 18:41:47;;;;;;;58.15;38.15;;;;;;;12.80;51.92;97347.16;10406194;28;20070;-54
2023/03/24 18:46:45;;;;;;;;;;;;;;;12.69;52.46;97357.72;10406280;28;20071;-54
2023/03/24 18:51:45;;;;;;;50.93;37.10;;;;;;;12.59;52.93;97365.72;10387939;28;19999;-54
2023/03/24 18:56:44;;;;;;;74.70;49.65;;;;;;;12.53;54.30;97358.84;10404083;28;20064;-54
2023/03/24 19:01:46;;;;;;;;;;;;;;;12.40;55.39;97354.72;10405665;28;20068;-54
2023/03/24 19:06:46;;;;;;;44.92;28.30;;;;;;;12.29;55.98;97347.06;10404974;28;21453;-54
2023/03/24 19:11:45;;;;;;;25.75;12.32;;;;;;;12.13;54.92;97346.38;10405114;28;20056;-54
2023/03/24 19:16:44;;;;;;;11.68;7.50;;;;;;;12.42;53.25;97347.78;10403714;28;20068;-52
2023/03/24 19:21:43;;;;;;;44.75;29.17;;;;;;;12.78;53.64;97340.25;10403201;28;20041;-54
2023/03/24 19:26:44;;;;;;;40.50;28.15;;;;;;;12.63;54.50;97342.22;10412077;28;20075;-54
2023/03/24 19:31:43;;;;;;;41.58;27.70;;;;;;;12.27;55.42;97341.91;10441845;28;20128;-54
2023/03/24 19:36:43;;;;;;;;;;;;;;;12.17;55.64;97332.47;10442153;28;20048;-55
2023/03/24 19:41:42;;;;;;;69.45;46.88;;;;;;;11.91;55.80;97317.22;10442986;28;20391;-54
2023/03/24 19:46:41;;;;;;;44.80;30.92;;;;;;;11.89;55.99;97322.44;10450026;28;20500;-53
2023/03/24 19:51:40;;;;;;;24.85;18.27;;;;;;;11.96;54.76;97327.56;10450173;28;20593;-54
2023/03/24 19:56:39;;;;;;;24.67;15.75;;;;;;;11.96;54.31;97332.78;10450287;28;20060;-55
2023/03/24 20:01:38;;;;;;;20.48;12.88;;;;;;;11.98;53.14;97326.66;10450292;28;20087;-54
2023/03/24 20:06:37;;;;;;;32.30;19.35;;;;;;;12.03;53.54;97319.66;10421331;28;20091;-55
2023/03/24 20:11:36;;;;;;;27.27;15.98;;;;;;;11.99;53.83;97327.50;10448730;28;20103;-53
2023/03/24 20:16:35;;;;;;;;;;;;;;;11.96;54.53;97323.22;10449036;28;20614;-53
2023/03/24 20:21:34;;;;;;;28.40;19.50;;;;;;;11.91;54.90;97324.16;10449776;28;20391;-52
2023/03/24 20:26:33;;;;;;;33.25;20.52;;;;;;;11.79;54.76;97325.19;10447906;28;20113;-54
2023/03/24 20:31:32;;;;;;;22.10;16.20;;;;;;;11.59;55.13;97317.63;10449410;28;20059;-55
2023/03/24 20:36:31;;;;;;;;;;;;;;;11.52;55.41;97318.59;10449676;28;20063;-54
2023/03/24 20:41:30;;;;;;;59.10;38.25;;;;;;;11.35;56.78;97316.19;10447225;28;20369;-54
2023/03/24 20:46:29;;;;;;;44.50;27.67;;;;;;;11.22;56.92;97315.44;10449025;28;20056;-54
2023/03/24 20:51:28;;;;;;;;;;;;;;;11.07;57.94;97303.50;10449971;28;20515;-53
2023/03/24 20:56:27;;;;;;;45.97;29.83;;;;;;;10.86;58.33;97304.53;10446694;28;20470;-53
2023/03/24 21:01:34;;;;;;;49.80;31.55;;;;;;;10.71;59.21;97305.53;10447830;28;20044;-55
2023/03/24 21:06:33;;;;;;;32.63;20.27;;;;;;;10.55;59.83;97303.94;10446566;28;20520;-54
2023/03/24 21:11:32;;;;;;;;;;;;;;;10.56;59.33;97301.31;10448406;28;20474;-54
2023/03/24 21:16:36;;;;;;;45.63;28.90;;;;;;;10.63;58.35;97296.94;10447232;28;20301;-54
2023/03/24 21:21:37;;;;;;;23.80;15.63;;;;;;;10.61;57.59;97294.38;10447234;28;20421;-53
2023/03/24 21:26:36;;;;;;;37.47;24.13;;;;;;;10.79;57.96;97298.53;10446045;28;20090;-53
2023/03/24 21:31:35;;;;;;;;;;;;;;;10.83;57.00;97289.84;10447617;28;20060;-53
2023/03/24 21:36:37;;;;;;;44.20;32.45;;;;;;;10.96;57.00;97295.81;10446648;28;20340;-53
2023/03/24 21:41:37;;;;;;;21.33;16.27;;;;;;;10.22;56.11;97155.53;10446804;28;20067;-55
2023/03/24 21:46:36;;;;;;;22.85;14.73;;;;;;;11.07;56.61;97302.63;10427505;28;20555;-53
2023/03/24 21:51:35;;;;;;;34.72;24.15;;;;;;;10.85;57.41;97292.44;10446405;28;20540;-52
2023/03/24 21:56:36;;;;;;;35.85;25.08;;;;;;;10.69;58.61;97281.31;10444694;28;20067;-53
2023/03/24 22:01:35;;;;;;;36.47;25.52;;;;;;;10.68;58.03;97299.50;10446042;28;20119;-53
2023/03/24 22:06:36;;;;;;;;;;;;;;;10.66;58.66;97296.94;10445134;28;20067;-53
2023/03/24 22:11:36;;;;;;;23.60;16.23;;;;;;;10.70;58.24;97302.94;10444450;28;20002;-53
2023/03/24 22:16:35;;;;;;;26.70;18.83;;;;;;;10.53;58.08;97283.19;10441043;28;20480;-54
2023/03/24 22:21:34;;;;;;;25.83;16.85;;;;;;;10.51;58.99;97294.47;10438706;28;20128;-52
2023/03/24 22:26:33;;;;;;;23.15;14.57;;;;;;;10.35;58.37;97260.00;10439459;28;20151;-54
2023/03/24 22:31:33;;;;;;;26.13;17.20;;;;;;;10.38;57.82;97260.84;10441755;28;20071;-53
2023/03/24 22:36:31;;;;;;;33.75;25.17;;;;;;;10.55;58.08;97284.03;10443342;28;20063;-53
2023/03/24 22:41:30;;;;;;;30.30;21.48;;;;;;;10.46;58.70;97281.53;10444870;28;20019;-53
2023/03/24 22:46:30;;;;;;;28.27;20.85;;;;;;;10.47;58.77;97280.66;10444400;28;20111;-53
2023/03/24 22:51:30;;;;;;;32.83;20.02;;;;;;;9.63;60.24;97170.69;10442964;28;20071;-53
2023/03/24 22:56:29;;;;;;;30.20;20.20;;;;;;;10.07;61.32;97286.13;10444139;28;20486;-53
2023/03/24 23:01:28;;;;;;;28.95;19.25;;;;;;;9.86;61.42;97284.53;10443445;28;20509;-53
2023/03/24 23:06:27;;;;;;;29.55;20.33;;;;;;;9.65;62.78;97288.13;10442447;28;20024;-53
2023/03/24 23:11:26;;;;;;;30.77;22.05;;;;;;;9.54;62.90;97285.56;10446643;28;20075;-53
2023/03/24 23:16:25;;;;;;;27.00;20.35;;;;;;;9.48;62.94;97274.38;10445407;28;20032;-53
2023/03/24 23:21:24;;;;;;;29.77;18.88;;;;;;;9.42;64.09;97274.38;10450444;28;20111;-54
2023/03/24 23:26:23;;;;;;;25.58;17.20;;;;;;;9.40;63.82;97265.78;10449440;28;20152;-53
2023/03/24 23:31:25;;;;;;;27.55;19.38;;;;;;;9.22;65.26;97259.75;10452233;28;20671;-53